createdAt,value
2023-02-17T00:05:42.566Z,6.80
2023-02-17T00:15:46.351Z,6.57
2023-02-17T00:25:50.594Z,6.73
2023-02-17T00:35:53.661Z,6.13
2023-02-17T00:45:58.566Z,6.40
2023-02-17T00:56:01.998Z,6.13
2023-02-17T01:06:09.892Z,6.00
2023-02-17T01:16:18.868Z,5.83
2023-02-17T01:26:25.523Z,5.18
2023-02-17T01:36:30.380Z,4.03
2023-02-17T01:46:36.257Z,4.17
2023-02-17T02:08:24.382Z,3.20
2023-02-17T02:18:45.230Z,3.00
2023-02-17T02:29:09.085Z,2.67
2023-02-17T02:39:17.668Z,2.97
2023-02-17T02:49:20.942Z,2.53
2023-02-17T02:59:35.251Z,2.50
2023-02-17T03:09:39.186Z,3.03
2023-02-17T03:19:45.843Z,2.93
2023-02-17T03:29:49.206Z,2.60
2023-02-17T03:39:56.542Z,2.53
2023-02-17T03:49:59.803Z,3.00
2023-02-17T04:00:05.573Z,3.03
2023-02-17T04:10:17.391Z,3.00
2023-02-17T04:20:22.087Z,3.00
2023-02-17T04:30:25.335Z,2.60
2023-02-17T04:40:29.595Z,2.97
2023-02-17T04:50:32.896Z,2.33
2023-02-17T05:00:37.962Z,2.57
2023-02-17T05:11:06.448Z,2.63
2023-02-17T05:21:10.942Z,1.57
2023-02-17T05:31:14.737Z,2.87
2023-02-17T05:41:20.412Z,2.90
2023-02-17T05:51:23.442Z,2.70
2023-02-17T06:01:28.633Z,2.87
2023-02-17T06:11:31.900Z,2.83
2023-02-17T06:21:36.642Z,2.50
2023-02-17T06:31:40.215Z,2.37
2023-02-17T06:41:44.764Z,2.00
2023-02-17T06:51:48.180Z,2.20
2023-02-17T07:01:54.549Z,2.60
2023-02-17T07:11:59.002Z,2.30
2023-02-17T07:22:03.821Z,2.60
2023-02-17T07:32:08.088Z,2.40
2023-02-17T07:52:43.406Z,2.63
2023-02-17T08:02:47.068Z,2.60
2023-02-17T08:13:05.662Z,1.93
2023-02-17T08:23:09.551Z,1.92
2023-02-17T08:33:18.037Z,1.93
2023-02-17T08:43:20.962Z,1.70
2023-02-17T08:53:25.526Z,1.80
2023-02-17T09:03:28.660Z,1.80
2023-02-17T09:13:33.356Z,1.37
2023-02-17T09:23:37.538Z,1.40
2023-02-17T09:33:42.828Z,1.23
2023-02-17T09:43:46.769Z,1.60
2023-02-17T09:53:58.717Z,0.83
2023-02-17T10:04:11.617Z,0.67
2023-02-17T10:14:20.254Z,0.73
2023-02-17T10:24:23.316Z,0.50
2023-02-17T10:34:37.492Z,0.53
2023-02-17T10:44:40.677Z,0.60
2023-02-17T10:54:51.440Z,0.40
2023-02-17T11:04:55.561Z,0.80
2023-02-17T11:15:04.362Z,0.50
2023-02-17T11:25:21.969Z,0.30
2023-02-17T11:35:46.109Z,0.70
2023-02-17T11:46:00.687Z,0.20
2023-02-17T11:56:15.470Z,0.30
2023-02-17T12:06:23.873Z,0.37
2023-02-17T12:16:41.239Z,0.50
2023-02-17T12:26:47.255Z,0.30
2023-02-17T12:36:53.350Z,0.50
2023-02-17T12:46:59.879Z,0.40
2023-02-17T12:57:14.672Z,0.40
2023-02-17T13:07:42.033Z,0.50
2023-02-17T13:17:56.527Z,0.47
2023-02-17T13:28:01.288Z,0.43
2023-02-17T13:38:06.524Z,0.50
2023-02-17T13:48:15.160Z,0.80
2023-02-17T13:58:25.533Z,0.50
2023-02-17T14:08:34.830Z,0.40
2023-02-17T14:18:42.790Z,0.40
2023-02-17T14:38:59.348Z,0.50
2023-02-17T14:49:03.493Z,0.87
2023-02-17T14:59:07.842Z,0.60
2023-02-17T15:09:13.582Z,0.70
2023-02-17T15:19:18.174Z,0.60
2023-02-17T15:29:23.026Z,0.87
2023-02-17T15:39:27.195Z,0.80
2023-02-17T15:49:30.138Z,0.80
2023-02-17T15:59:38.120Z,0.70
2023-02-17T16:09:41.169Z,1.07
2023-02-17T16:19:45.557Z,1.20
2023-02-17T16:29:48.560Z,0.80
2023-02-17T16:39:52.940Z,0.80
2023-02-17T16:49:55.898Z,1.00
2023-02-17T17:00:00.373Z,1.60
2023-02-17T17:10:19.200Z,1.70
2023-02-17T17:20:28.064Z,1.50
2023-02-17T17:30:35.755Z,1.97
2023-02-17T17:40:49.202Z,2.17
2023-02-17T17:50:52.176Z,2.10
2023-02-17T18:00:56.700Z,3.47
2023-02-17T18:11:00.202Z,3.73
2023-02-17T18:21:04.469Z,2.67
2023-02-17T18:31:08.347Z,1.93
2023-02-17T18:41:20.295Z,1.40
2023-02-17T18:51:24.345Z,1.63
2023-02-17T19:01:32.088Z,1.70
2023-02-17T19:11:36.015Z,1.70
2023-02-17T19:21:40.483Z,3.90
2023-02-17T19:31:43.636Z,1.60
2023-02-17T19:41:48.206Z,1.33
2023-02-17T19:51:51.574Z,1.90
2023-02-17T20:01:55.956Z,1.83
2023-02-17T20:11:59.343Z,1.50
2023-02-17T20:22:04.180Z,1.50
2023-02-17T20:32:07.323Z,2.07
2023-02-17T20:42:11.755Z,2.37
2023-02-17T20:52:14.840Z,2.20
2023-02-17T21:02:19.760Z,2.10
2023-02-17T21:12:23.223Z,1.93
2023-02-17T21:22:27.773Z,2.23
2023-02-17T21:32:31.388Z,1.43
2023-02-17T21:42:52.118Z,1.87
2023-02-17T21:52:55.260Z,2.27
2023-02-17T22:02:59.987Z,2.50
2023-02-17T22:13:03.480Z,4.00
2023-02-17T22:23:07.969Z,3.17
2023-02-17T22:33:11.565Z,2.50
2023-02-17T22:43:16.108Z,3.17
2023-02-17T22:53:19.746Z,3.00
2023-02-17T23:03:24.752Z,2.50
2023-02-17T23:13:27.848Z,2.30
2023-02-17T23:23:32.318Z,1.63
2023-02-17T23:33:35.448Z,1.33
2023-02-17T23:43:39.965Z,1.10
2023-02-17T23:53:42.940Z,1.40
